PILOTS ONLINE: 289    ATC ONLINE: 37

CBBC

Bella Bella (Campbell Island) Airport

Location

City Bella Bella
Country  Canada
Latitude 52° 11' 6" N
Longitude 128° 9' 25" W
Elevation 141 ft
Type Small Airport

Map

Weather

METAR
2014/10/25 07:00
CBBC 250700Z AUTO 00000KT 9SM FEW075 BKN140 05/04 A2985 RMK PRESFR SLP110
TAF
2014/10/25 01:00
TAF CBBC 250038Z 2501/2505 12005KT P6SM SCT030 BKN060 
      TEMPO 2501/2505 4SM SHRA BR OVC030 
      RMK FCST BASED ON AUTO OBS. NXT FCST WILL BE ISSUED AT 251245Z

Runways

13/31 3700 ft / 75 ft

Outbound flights

Callsign Flying to Pilot ATD/STD ETA Aircraft

Inbound flights

Callsign Flying from Pilot ATD ETA Aircraft